Terminal Aerodrome Forecast
Issued by NWS Wilmington, OH

Current Version | Previous Version | Graphics & Text | Print | Product List | Glossary On
Versions: 1 2 3 4 5 6 7 8 9 10 11 12 13 14 15 16 17 18 19 20 21 22 23
000
FTUS41 KILN 241100
TAFILN
TAF
KILN 241120Z 2412/2512 00000KT P6SM FEW250
     FM241400 24008KT P6SM FEW050 SCT250
     FM242300 19004KT P6SM SCT100 BKN150
     FM250300 12003KT P6SM OVC080
     FM250800 14006KT P6SM SCT035 OVC060=

USA.gov is the U.S. government's official web portal to all federal, state and local government web resources and services.